Time;durP1;ratioP1;P1;durP2;ratioP2;P2;SDS_P1;SDS_P2;PMS_P1;PMS_P2;Temp;Humidity;BMP_temperature;BMP_pressure;BME280_temperature;BME280_humidity;BME280_pressure;Samples;Min_cycle;Max_cycle;Signal;HPM_P1;HPM_P2
2022/06/10 00:00:07;;;;;;;10.43;4.20;;;12.90;99.90;;;;;;5089709;28;20424;-81
2022/06/10 00:02:33;;;;;;;11.15;3.92;;;;;;;;;;5076595;28;20425;-81
2022/06/10 00:04:59;;;;;;;11.80;4.43;;;;;;;;;;5086990;28;20406;-80
2022/06/10 00:07:27;;;;;;;12.32;4.22;;;;;;;;;;5105077;28;20422;-80
2022/06/10 00:09:53;;;;;;;9.57;4.50;;;;;;;;;;5102774;28;20424;-80
2022/06/10 00:12:20;;;;;;;11.38;4.10;;;;;;;;;;5090189;28;20424;-80
2022/06/10 00:14:46;;;;;;;12.40;4.78;;;;;;;;;;5095557;28;20400;-80
2022/06/10 00:17:12;;;;;;;9.38;4.30;;;;;;;;;;5085267;28;20426;-80
2022/06/10 00:19:38;;;;;;;11.15;4.57;;;;;;;;;;5092585;28;20474;-81
2022/06/10 00:22:04;;;;;;;10.03;4.13;;;;;;;;;;5075558;28;20431;-81
2022/06/10 00:24:30;;;;;;;12.02;4.50;;;;;;;;;;5092751;28;20408;-81
2022/06/10 00:26:56;;;;;;;13.75;4.32;;;;;;;;;;5086463;28;20454;-81
2022/06/10 00:29:22;;;;;;;13.93;4.60;;;;;;;;;;5080466;28;20428;-80
2022/06/10 00:31:48;;;;;;;12.23;4.40;;;;;;;;;;5092427;28;20534;-80
2022/06/10 00:34:15;;;;;;;11.63;4.70;;;;;;;;;;5087819;28;20427;-80
2022/06/10 00:36:41;;;;;;;11.30;4.33;;;;;;;;;;5101041;28;20417;-80
2022/06/10 00:39:07;;;;;;;12.68;4.72;;;;;;;;;;5083094;28;20408;-81
2022/06/10 00:41:33;;;;;;;10.60;4.82;;;;;;;;;;5106021;28;20420;-81
2022/06/10 00:43:59;;;;;;;10.77;4.50;;;;;;;;;;5108072;28;20805;-81
2022/06/10 00:46:35;;;;;;;11.02;4.78;;;12.30;99.90;;;;;;5088683;28;20447;-81
2022/06/10 00:49:01;;;;;;;12.15;4.32;;;;;;;;;;5092814;28;20428;-81
2022/06/10 00:51:27;;;;;;;10.00;4.40;;;;;;;;;;5109685;28;20930;-81
2022/06/10 00:53:58;;;;;;;11.40;4.50;;;12.30;99.90;;;;;;5104089;28;20985;-80
2022/06/10 00:56:26;;;;;;;11.85;4.60;;;12.30;99.90;;;;;;5075512;28;20453;-81
2022/06/10 00:58:58;;;;;;;9.70;4.32;;;;;;;;;;5095423;28;20418;-81
2022/06/10 01:01:25;;;;;;;8.65;4.50;;;;;;;;;;5094181;28;20431;-81
2022/06/10 01:03:51;;;;;;;10.05;4.40;;;;;;;;;;5102536;28;20416;-81
2022/06/10 01:06:17;;;;;;;9.98;4.35;;;;;;;;;;5073308;28;20465;-81
2022/06/10 01:08:45;;;;;;;10.73;4.70;;;12.30;99.90;;;;;;5074467;28;20452;-81
2022/06/10 01:11:19;;;;;;;9.90;4.38;;;;;;;;;;5107900;28;20499;-81
2022/06/10 01:14:26;;;;;;;11.73;4.60;;;12.30;99.90;;;;;;5109400;28;20420;-81
2022/06/10 01:17:17;;;;;;;10.50;4.10;;;12.20;99.90;;;;;;5072260;28;20903;-80
2022/06/10 01:19:50;;;;;;;11.98;4.35;;;;;;;;;;5107663;28;20844;-80
2022/06/10 01:22:32;;;;;;;14.10;5.23;;;;;;;;;;5097065;28;20417;-80
2022/06/10 01:25:04;;;;;;;12.23;4.43;;;;;;;;;;5099732;28;20424;-81
2022/06/10 01:28:08;;;;;;;13.32;4.85;;;12.10;99.90;;;;;;5105303;28;20943;-81
2022/06/10 01:30:52;;;;;;;9.68;4.43;;;;;;;;;;5086856;28;20469;-81
2022/06/10 01:33:30;;;;;;;13.05;4.68;;;12.10;99.90;;;;;;5081055;28;20503;-81
2022/06/10 01:36:13;;;;;;;11.55;4.85;;;;;;;;;;5092597;28;20759;-81
2022/06/10 01:39:02;;;;;;;11.13;4.80;;;12.00;99.90;;;;;;5085635;28;20467;-81
2022/06/10 01:41:50;;;;;;;12.57;5.10;;;12.00;99.90;;;;;;5092997;28;20884;-81
2022/06/10 01:44:40;;;;;;;12.65;5.13;;;12.10;99.90;;;;;;5083161;28;20392;-80
2022/06/10 01:47:09;;;;;;;11.33;5.17;;;;;;;;;;5105914;28;20415;-81
2022/06/10 01:49:54;;;;;;;12.00;5.10;;;;;;;;;;5103955;28;20432;-81
2022/06/10 01:52:32;;;;;;;15.55;5.43;;;;;;;;;;5090455;28;20778;-80
2022/06/10 01:55:01;;;;;;;12.27;4.95;;;;;;;;;;5086211;28;20417;-80
2022/06/10 01:57:32;;;;;;;14.65;5.40;;;;;;;;;;5078765;28;20397;-81
2022/06/10 02:00:06;;;;;;;13.32;4.90;;;12.20;99.90;;;;;;5089784;28;20409;-80
2022/06/10 02:02:34;;;;;;;13.77;5.18;;;;;;;;;;5094985;28;20465;-80
2022/06/10 02:05:07;;;;;;;11.27;5.43;;;;;;;;;;5066631;28;20452;-80
2022/06/10 02:07:45;;;;;;;11.32;5.03;;;;;;;;;;5074149;28;20427;-80
2022/06/10 02:10:19;;;;;;;11.52;5.25;;;;;;;;;;5090264;28;20421;-80
2022/06/10 02:12:51;;;;;;;12.40;5.30;;;12.10;99.90;;;;;;5089944;28;20404;-80
2022/06/10 02:15:21;;;;;;;11.90;5.07;;;;;;;;;;5068322;28;20423;-80
2022/06/10 02:17:53;;;;;;;12.07;5.07;;;;;;;;;;5094927;28;20410;-79
2022/06/10 02:20:23;;;;;;;13.13;5.20;;;;;;;;;;5091417;28;20438;-80
2022/06/10 02:22:49;;;;;;;13.32;5.60;;;;;;;;;;5092270;28;20413;-80
2022/06/10 02:25:19;;;;;;;11.90;5.65;;;;;;;;;;5085794;28;20423;-80
2022/06/10 04:25:48;;;;;;;12.57;4.38;;;;;;;;;;5105491;27;20724;-81
2022/06/10 04:28:14;;;;;;;12.88;4.25;;;;;;;;;;5035550;28;20513;-81
2022/06/10 04:30:46;;;;;;;13.03;4.63;;;;;;;;;;5055681;28;20449;-81
2022/06/10 04:33:12;;;;;;;14.50;5.15;;;;;;;;;;5070214;28;20430;-81
2022/06/10 04:35:40;;;;;;;19.52;4.82;;;;;;;;;;5052925;28;20418;-81
2022/06/10 04:38:06;;;;;;;15.70;4.43;;;;;;;;;;5048035;28;20472;-81
2022/06/10 04:40:33;;;;;;;14.57;4.10;;;;;;;;;;5050966;28;20421;-81
2022/06/10 04:43:00;;;;;;;11.77;3.90;;;;;;;;;;5057281;28;20417;-81
2022/06/10 04:45:36;;;;;;;16.83;4.60;;;;;;;;;;5057938;28;20915;-80
2022/06/10 04:48:02;;;;;;;15.35;4.50;;;;;;;;;;5073979;28;20914;-80
2022/06/10 04:50:29;;;;;;;14.20;4.20;;;;;;;;;;5050405;28;20435;-80
2022/06/10 04:52:55;;;;;;;13.38;3.95;;;;;;;;;;5046825;28;20935;-80
2022/06/10 04:55:23;;;;;;;12.73;4.25;;;13.30;99.90;;;;;;5034345;28;20428;-81
2022/06/10 04:57:49;;;;;;;12.43;4.03;;;;;;;;;;5045343;28;20431;-81
2022/06/10 05:00:22;;;;;;;13.43;4.20;;;13.80;99.90;;;;;;5068723;28;20516;-81
2022/06/10 05:02:48;;;;;;;11.15;3.90;;;;;;;;;;5047257;28;20422;-80
2022/06/10 05:05:14;;;;;;;13.18;4.40;;;;;;;;;;5064785;28;20424;-81
2022/06/10 05:07:41;;;;;;;11.85;4.13;;;;;;;;;;5066308;28;20411;-81
2022/06/10 05:10:07;;;;;;;12.85;4.13;;;;;;;;;;5042253;28;20962;-81
2022/06/10 05:12:34;;;;;;;10.38;3.80;;;;;;;;;;5054767;28;20426;-82
2022/06/10 05:15:00;;;;;;;13.43;4.22;;;;;;;;;;5062756;28;20429;-81
2022/06/10 05:17:26;;;;;;;11.02;3.75;;;;;;;;;;5046379;28;20425;-82
2022/06/10 05:19:52;;;;;;;16.35;4.35;;;;;;;;;;5056378;28;20455;-81
2022/06/10 05:22:19;;;;;;;15.38;4.45;;;;;;;;;;5062468;28;20440;-81
2022/06/10 05:24:45;;;;;;;12.50;3.95;;;;;;;;;;5035432;28;20424;-81
2022/06/10 05:27:11;;;;;;;12.95;3.97;;;;;;;;;;5055769;28;20474;-81
2022/06/10 05:29:37;;;;;;;18.55;4.18;;;;;;;;;;5036837;28;20496;-81
2022/06/10 05:32:04;;;;;;;13.38;4.35;;;;;;;;;;5060532;28;20423;-81
2022/06/10 05:34:45;;;;;;;13.00;4.65;;;;;;;;;;5052678;28;20422;-80
2022/06/10 05:37:14;;;;;;;15.77;4.40;;;14.20;99.90;;;;;;5040835;28;20509;-81
2022/06/10 05:39:40;;;;;;;12.50;4.60;;;;;;;;;;5017975;28;20438;-81
2022/06/10 05:42:07;;;;;;;16.23;4.93;;;;;;;;;;5032740;28;20403;-81
2022/06/10 05:44:44;;;;;;;12.88;4.45;;;;;;;;;;5039481;28;20956;-81
2022/06/10 05:47:12;;;;;;;14.57;4.47;;;;;;;;;;5024893;28;20746;-81
2022/06/10 05:49:40;;;;;;;15.32;4.50;;;;;;;;;;5047911;28;20490;-81
2022/06/10 05:52:07;;;;;;;13.13;4.53;;;;;;;;;;5038775;28;20964;-81
2022/06/10 05:54:35;;;;;;;11.95;4.50;;;;;;;;;;5037322;28;20473;-81
2022/06/10 05:57:02;;;;;;;14.50;4.80;;;;;;;;;;5022960;28;20462;-81
2022/06/10 05:59:33;;;;;;;18.13;5.00;;;;;;;;;;5038092;28;20485;-81
2022/06/10 06:01:59;;;;;;;14.98;4.72;;;;;;;;;;5037245;28;20429;-82
2022/06/10 06:04:26;;;;;;;14.65;4.32;;;;;;;;;;5053169;28;20806;-80
2022/06/10 06:06:51;;;;;;;15.88;5.25;;;14.80;99.90;;;;;;5018975;28;20419;-82
2022/06/10 06:09:18;;;;;;;14.53;4.97;;;;;;;;;;5028510;28;20587;-78
2022/06/10 06:11:46;;;;;;;14.18;5.25;;;;;;;;;;5038116;28;20423;-78
2022/06/10 06:14:12;;;;;;;12.02;5.55;;;;;;;;;;5048995;28;20417;-78
2022/06/10 06:16:39;;;;;;;15.25;5.72;;;14.80;99.90;;;;;;5034125;28;20424;-78
2022/06/10 06:19:05;;;;;;;14.07;6.03;;;;;;;;;;5040096;28;20431;-77
2022/06/10 06:21:31;;;;;;;12.40;5.30;;;;;;;;;;5047841;28;20429;-78
2022/06/10 06:23:58;;;;;;;18.93;5.90;;;14.60;99.90;;;;;;5041427;28;20460;-79
2022/06/10 06:26:25;;;;;;;15.77;6.03;;;;;;;;;;5040907;28;20777;-79
2022/06/10 06:28:51;;;;;;;14.30;5.95;;;;;;;;;;5038444;28;20419;-78
2022/06/10 06:31:17;;;;;;;15.00;5.90;;;;;;;;;;5015485;28;20516;-78
2022/06/10 06:33:43;;;;;;;13.95;5.82;;;;;;;;;;5041211;28;20429;-78
2022/06/10 06:36:15;;;;;;;19.70;6.07;;;;;;;;;;5021995;28;20427;-78
2022/06/10 06:38:41;;;;;;;12.25;5.22;;;;;;;;;;5022030;28;20916;-78
2022/06/10 06:41:07;;;;;;;12.50;5.55;;;;;;;;;;5030622;28;20425;-78
2022/06/10 06:43:33;;;;;;;12.35;5.10;;;;;;;;;;5048254;28;20405;-78
2022/06/10 06:45:59;;;;;;;15.25;5.40;;;;;;;;;;5017271;28;20427;-78
2022/06/10 06:48:25;;;;;;;16.48;5.25;;;;;;;;;;5022372;28;20417;-78
2022/06/10 06:50:51;;;;;;;15.52;5.30;;;;;;;;;;5029336;28;20929;-79
2022/06/10 06:53:18;;;;;;;12.85;4.75;;;;;;;;;;5017043;28;20951;-79
2022/06/10 06:55:44;;;;;;;12.75;5.07;;;;;;;;;;5027071;28;20423;-79
2022/06/10 06:58:16;;;;;;;16.02;5.45;;;;;;;;;;5014878;28;20427;-78
2022/06/10 07:00:42;;;;;;;13.50;5.75;;;;;;;;;;5038130;28;20489;-79
2022/06/10 07:03:09;;;;;;;14.88;5.85;;;;;;;;;;5033042;28;20421;-78
2022/06/10 07:05:35;;;;;;;17.60;6.83;;;;;;;;;;5031862;28;20432;-79
2022/06/10 07:08:02;;;;;;;16.55;6.70;;;15.70;99.90;;;;;;5037693;28;20407;-79
2022/06/10 07:10:29;;;;;;;14.43;6.15;;;;;;;;;;5024282;28;20419;-79
2022/06/10 07:12:55;;;;;;;15.52;6.05;;;;;;;;;;5020079;28;20421;-79
2022/06/10 07:15:21;;;;;;;14.20;6.32;;;16.30;99.90;;;;;;5046160;28;20448;-79
2022/06/10 07:17:48;;;;;;;13.68;6.03;;;;;;;;;;5043874;28;20491;-81
2022/06/10 07:20:30;;;;;;;14.23;6.70;;;16.40;99.90;;;;;;5016410;28;20508;-81
2022/06/10 07:22:57;;;;;;;14.63;6.20;;;16.30;99.90;;;;;;5022924;28;20772;-80
2022/06/10 07:25:23;;;;;;;15.57;6.32;;;;;;;;;;4993591;28;20440;-80
2022/06/10 07:27:52;;;;;;;16.70;6.90;;;16.60;99.90;;;;;;5027387;28;20424;-80
2022/06/10 07:30:19;;;;;;;12.82;5.93;;;;;;;;;;5013882;28;20462;-79
2022/06/10 07:32:45;;;;;;;14.63;6.32;;;16.70;99.90;;;;;;5024446;28;20811;-78
2022/06/10 07:35:12;;;;;;;11.90;6.15;;;16.40;99.90;;;;;;5026557;28;20430;-80
2022/06/10 07:37:38;;;;;;;12.23;5.85;;;;;;;;;;5044027;28;20423;-81
2022/06/10 07:40:04;;;;;;;13.52;6.00;;;;;;;;;;5042113;28;20494;-82
2022/06/10 07:42:30;;;;;;;12.55;5.55;;;;;;;;;;5029588;28;20407;-80
2022/06/10 07:44:56;;;;;;;13.20;6.35;;;16.60;99.90;;;;;;5042382;28;20444;-80
2022/06/10 07:47:23;;;;;;;14.35;5.90;;;;;;;;;;5030017;28;20895;-79
2022/06/10 07:49:48;;;;;;;12.23;6.00;;;16.70;99.90;;;;;;5035629;28;20427;-78
2022/06/10 07:52:15;;;;;;;14.97;6.60;;;17.00;99.90;;;;;;5033775;28;20471;-81
2022/06/10 07:54:41;;;;;;;17.75;6.50;;;;;;;;;;4993851;28;20524;-81
2022/06/10 07:57:08;;;;;;;14.38;6.20;;;17.10;99.90;;;;;;5039550;28;20434;-81
2022/06/10 07:59:34;;;;;;;14.17;6.77;;;;;;;;;;5027294;28;20434;-82
2022/06/10 08:02:00;;;;;;;12.60;5.93;;;17.40;99.90;;;;;;5027318;28;20573;-82
2022/06/10 08:04:27;;;;;;;14.68;5.90;;;;;;;;;;5015169;28;20452;-80
2022/06/10 08:06:53;;;;;;;16.88;6.45;;;17.30;99.90;;;;;;5027903;28;20502;-77
2022/06/10 08:09:20;;;;;;;14.38;6.00;;;;;;;;;;5049346;28;20481;-80
2022/06/10 08:11:48;;;;;;;12.18;5.35;;;17.80;99.90;;;;;;5029789;28;20410;-80
2022/06/10 08:14:13;;;;;;;14.10;5.80;;;18.00;99.90;;;;;;5045714;28;20480;-79
2022/06/10 08:16:39;;;;;;;13.20;5.33;;;17.80;99.90;;;;;;5010861;28;20472;-79
2022/06/10 08:19:06;;;;;;;13.77;5.60;;;17.90;99.90;;;;;;5041138;28;20467;-79
2022/06/10 08:24:20;;;;;;;13.93;5.20;;;;;;;;;;5014674;28;20582;-80
2022/06/10 08:26:47;;;;;;;13.93;5.60;;;;;;;;;;5041999;28;20422;-80
2022/06/10 08:29:12;;;;;;;18.73;5.63;;;17.20;99.90;;;;;;5011916;28;20501;-79
2022/06/10 08:31:38;;;;;;;15.55;5.70;;;17.20;99.90;;;;;;5024600;28;20421;-80
2022/06/10 08:34:04;;;;;;;14.18;5.47;;;17.50;99.90;;;;;;5027616;28;21022;-80
2022/06/10 08:36:33;;;;;;;17.08;6.10;;;17.60;99.90;;;;;;5016728;28;20429;-80
2022/06/10 08:39:00;;;;;;;18.98;6.90;;;17.40;99.90;;;;;;5033273;28;20753;-80
2022/06/10 08:41:41;;;;;;;14.32;6.50;;;17.40;99.90;;;;;;5028368;28;20423;-80
2022/06/10 08:44:11;;;;;;;16.73;6.60;;;17.40;99.90;;;;;;5029910;28;20501;-79
2022/06/10 08:47:07;;;;;;;15.18;6.32;;;;;;;;;;5020377;28;20430;-80
2022/06/10 08:49:45;;;;;;;17.33;5.90;;;;;;;;;;4961799;28;20577;-79
2022/06/10 08:52:49;;;;;;;13.85;6.18;;;17.70;99.90;;;;;;5032914;28;20393;-78
2022/06/10 08:55:53;;;;;;;18.37;6.10;;;18.00;99.90;;;;;;5016251;28;20513;-80
2022/06/10 08:58:26;;;;;;;11.98;5.25;;;18.00;99.90;;;;;;5024544;28;20425;-79
2022/06/10 09:01:04;;;;;;;14.10;5.25;;;18.10;99.90;;;;;;5019608;28;20430;-79
2022/06/10 09:03:38;;;;;;;15.35;5.35;;;18.20;99.90;;;;;;5039672;28;20431;-79
2022/06/10 09:06:09;;;;;;;14.68;5.63;;;17.90;99.90;;;;;;5039214;28;20429;-80
2022/06/10 09:08:40;;;;;;;11.53;5.03;;;18.10;99.90;;;;;;5033073;28;20973;-80
2022/06/10 09:11:30;;;;;;;12.17;5.53;;;18.00;99.90;;;;;;5023030;28;20424;-80
2022/06/10 09:14:20;;;;;;;13.07;5.30;;;18.30;99.90;;;;;;5050668;28;20421;-80
2022/06/10 09:16:59;;;;;;;11.90;5.30;;;17.80;99.90;;;;;;5042744;28;20454;-79
2022/06/10 09:19:25;;;;;;;14.15;6.13;;;;;;;;;;5035918;28;20497;-78
2022/06/10 09:22:01;;;;;;;18.30;6.45;;;17.50;99.90;;;;;;5037977;28;20481;-79
2022/06/10 09:24:43;;;;;;;12.67;5.80;;;17.70;99.90;;;;;;5023412;28;20465;-78
2022/06/10 09:27:23;;;;;;;15.25;6.00;;;18.00;99.90;;;;;;5038345;28;20420;-78
2022/06/10 09:29:49;;;;;;;13.73;5.33;;;;;;;;;;5049409;28;20900;-77
2022/06/10 09:32:37;;;;;;;13.48;5.45;;;17.90;99.90;;;;;;5055571;28;20926;-78
2022/06/10 09:35:06;;;;;;;11.40;5.28;;;17.80;99.90;;;;;;5047547;28;20423;-78
2022/06/10 09:37:49;;;;;;;12.82;5.55;;;18.10;99.90;;;;;;5034517;28;20525;-79
2022/06/10 09:40:39;;;;;;;15.73;5.43;;;17.90;99.90;;;;;;5034687;28;20768;-78
2022/06/10 09:43:36;;;;;;;15.38;6.13;;;18.20;99.90;;;;;;5038412;28;20415;-78
2022/06/10 09:46:20;;;;;;;15.73;5.90;;;18.20;99.90;;;;;;5030165;28;20425;-79
2022/06/10 09:49:01;;;;;;;16.30;6.40;;;18.20;99.90;;;;;;5038000;28;20438;-79
2022/06/10 09:51:36;;;;;;;15.37;6.00;;;;;;;;;;5044572;28;20417;-79
2022/06/10 09:54:33;;;;;;;16.63;5.80;;;18.40;99.90;;;;;;5046759;28;20457;-80
2022/06/10 09:57:31;;;;;;;14.50;5.90;;;18.10;99.90;;;;;;5044468;28;20946;-79
2022/06/10 10:00:11;;;;;;;11.65;6.22;;;18.20;99.90;;;;;;5021586;28;20427;-79
2022/06/10 10:02:55;;;;;;;15.25;5.85;;;17.90;99.90;;;;;;5029630;28;20427;-79
2022/06/10 10:05:36;;;;;;;16.70;6.10;;;18.50;99.90;;;;;;5044330;28;20426;-79
2022/06/10 10:08:02;;;;;;;13.00;6.10;;;18.00;99.90;;;;;;5050011;28;20405;-79
2022/06/10 10:10:39;;;;;;;12.73;5.80;;;18.40;99.90;;;;;;5040946;28;20926;-79
2022/06/10 10:13:14;;;;;;;13.05;5.68;;;18.60;99.90;;;;;;5041556;28;20428;-78
2022/06/10 10:16:01;;;;;;;12.18;5.80;;;18.70;99.90;;;;;;5038561;28;20464;-78
2022/06/10 10:18:42;;;;;;;12.73;5.47;;;18.80;99.90;;;;;;5022857;28;20438;-78
2022/06/10 10:21:14;;;;;;;16.08;6.03;;;18.70;99.90;;;;;;5045974;28;20933;-79
2022/06/10 10:23:44;;;;;;;15.07;6.18;;;18.60;99.90;;;;;;5034534;28;21838;-78
2022/06/10 10:26:23;;;;;;;15.77;6.53;;;18.50;99.90;;;;;;5020908;28;20426;-79
2022/06/10 10:28:59;;;;;;;14.65;6.07;;;18.60;99.90;;;;;;5045105;28;20491;-78
2022/06/10 10:31:27;;;;;;;12.63;5.82;;;18.80;99.90;;;;;;5044881;28;20496;-77
2022/06/10 10:33:54;;;;;;;14.57;6.18;;;18.90;99.90;;;;;;5016902;28;20570;-77
2022/06/10 10:36:30;;;;;;;12.73;5.82;;;18.50;99.90;;;;;;5037405;28;20498;-77
2022/06/10 10:38:57;;;;;;;14.55;6.10;;;18.50;99.90;;;;;;5032824;28;20907;-77
2022/06/10 10:41:48;;;;;;;12.67;6.00;;;18.60;99.90;;;;;;5048755;28;20411;-77
2022/06/10 10:44:38;;;;;;;14.63;6.07;;;18.70;99.90;;;;;;5016248;28;20424;-77
2022/06/10 10:47:10;;;;;;;13.30;5.88;;;18.80;99.90;;;;;;5041282;28;20434;-78
2022/06/10 10:49:41;;;;;;;11.50;5.53;;;19.00;99.90;;;;;;5032307;28;20766;-78
2022/06/10 10:52:15;;;;;;;12.25;5.07;;;19.30;99.90;;;;;;5048081;28;20426;-78
2022/06/10 10:54:44;;;;;;;12.02;4.68;;;19.00;99.90;;;;;;5028552;28;20417;-77
2022/06/10 10:57:21;;;;;;;11.05;4.40;;;19.30;99.90;;;;;;5029561;28;20917;-77
2022/06/10 11:00:11;;;;;;;9.65;4.97;;;19.40;99.90;;;;;;5036600;28;20436;-77
2022/06/10 11:02:49;;;;;;;9.50;4.28;;;19.70;99.90;;;;;;5038966;28;20934;-77
2022/06/10 11:05:25;;;;;;;9.93;4.50;;;19.40;99.90;;;;;;5027576;28;20425;-78
2022/06/10 11:08:26;;;;;;;9.00;4.40;;;19.80;99.90;;;;;;5026754;28;20839;-79
2022/06/10 11:11:03;;;;;;;9.13;4.70;;;19.80;99.90;;;;;;5015275;28;21013;-79
2022/06/10 11:13:44;;;;;;;10.07;5.30;;;20.10;99.90;;;;;;5027895;28;20413;-79
2022/06/10 11:16:29;;;;;;;9.75;4.47;;;20.00;99.90;;;;;;5009399;28;20468;-78
2022/06/10 11:19:00;;;;;;;10.70;4.78;;;20.80;99.90;;;;;;5035711;28;20421;-78
2022/06/10 11:21:27;;;;;;;10.37;4.30;;;19.80;99.90;;;;;;5031513;28;20504;-78
2022/06/10 11:23:55;;;;;;;10.23;4.45;;;19.90;99.90;;;;;;5028531;28;20483;-76
2022/06/10 11:26:24;;;;;;;13.80;4.70;;;20.30;99.90;;;;;;5014891;28;20422;-78
2022/06/10 11:29:00;;;;;;;11.87;4.90;;;20.30;99.90;;;;;;5013532;28;20471;-78
2022/06/10 11:31:38;;;;;;;11.67;5.20;;;21.00;99.90;;;;;;5006802;28;20423;-78
2022/06/10 11:34:05;;;;;;;10.98;4.70;;;21.20;99.90;;;;;;5028549;28;20501;-78
2022/06/10 11:36:44;;;;;;;10.18;4.88;;;21.10;99.90;;;;;;5012770;28;20445;-78
2022/06/10 11:39:31;;;;;;;12.10;5.60;;;21.20;99.90;;;;;;5038005;28;20436;-78
2022/06/10 11:42:17;;;;;;;15.02;5.63;;;20.60;99.90;;;;;;5025210;28;20526;-78
2022/06/10 11:44:52;;;;;;;10.85;5.05;;;20.80;99.90;;;;;;5032414;28;20461;-78
2022/06/10 11:47:37;;;;;;;10.52;5.32;;;21.40;99.90;;;;;;5030184;28;20397;-78
2022/06/10 11:50:19;;;;;;;10.35;5.22;;;21.70;99.90;;;;;;5029519;28;20405;-78
2022/06/10 11:52:44;;;;;;;9.60;6.00;;;22.00;99.90;;;;;;5040001;28;20464;-78
2022/06/10 11:55:18;;;;;;;14.33;6.00;;;21.80;99.90;;;;;;5045353;28;20461;-79
2022/06/10 12:00:53;;;;;;;12.68;5.95;;;21.70;99.90;;;;;;5044548;28;20402;-79
2022/06/10 12:03:33;;;;;;;12.43;6.18;;;21.40;99.90;;;;;;5041623;28;20415;-79
2022/06/10 12:06:03;;;;;;;12.83;5.60;;;21.60;99.90;;;;;;5034282;28;20429;-79
2022/06/10 12:08:40;;;;;;;14.68;5.97;;;21.30;99.90;;;;;;5042082;28;20399;-79
2022/06/10 12:11:12;;;;;;;12.75;6.05;;;21.20;99.90;;;;;;5048091;28;20408;-78
2022/06/10 12:13:48;;;;;;;12.52;5.80;;;21.10;99.90;;;;;;5038239;28;20421;-78
2022/06/10 12:16:14;;;;;;;11.95;5.43;;;21.70;99.90;;;;;;5036241;28;20415;-78
2022/06/10 12:18:45;;;;;;;11.50;5.20;;;20.40;99.90;;;;;;5028026;28;20478;-79
2022/06/10 12:21:18;;;;;;;12.15;5.63;;;21.20;99.90;;;;;;5043237;28;20407;-78
2022/06/10 12:23:47;;;;;;;12.35;5.20;;;22.30;99.90;;;;;;5035210;28;20941;-78
2022/06/10 12:26:33;;;;;;;12.45;5.88;;;21.50;99.90;;;;;;5015871;28;20770;-79
2022/06/10 12:29:20;;;;;;;10.95;5.32;;;21.40;99.90;;;;;;5046438;28;20399;-78
2022/06/10 12:31:58;;;;;;;13.43;5.68;;;21.50;99.90;;;;;;5046979;28;20428;-78
2022/06/10 12:34:52;;;;;;;11.55;5.32;;;21.40;99.90;;;;;;5032814;28;20409;-78
2022/06/10 12:37:48;;;;;;;12.10;5.70;;;21.50;99.90;;;;;;5015859;28;20946;-79
2022/06/10 12:40:32;;;;;;;12.57;5.68;;;21.40;99.90;;;;;;5040034;28;20420;-79
2022/06/10 12:43:02;;;;;;;8.60;4.73;;;21.30;99.90;;;;;;5026898;28;20409;-79
2022/06/10 12:45:41;;;;;;;8.07;4.80;;;21.30;99.90;;;;;;5041241;28;20989;-79
2022/06/10 12:48:17;;;;;;;13.25;5.60;;;21.30;99.90;;;;;;5050339;28;20942;-79
2022/06/10 12:50:58;;;;;;;12.23;5.32;;;21.50;99.90;;;;;;5039193;28;20417;-79
2022/06/10 12:53:29;;;;;;;13.32;5.13;;;21.50;99.90;;;;;;5031243;28;20422;-79
2022/06/10 12:55:58;;;;;;;8.27;5.07;;;21.50;99.90;;;;;;5036988;28;20422;-79
2022/06/10 12:58:43;;;;;;;10.38;4.70;;;21.60;99.90;;;;;;5048012;28;20993;-79
2022/06/10 13:01:27;;;;;;;9.33;4.67;;;21.80;99.90;;;;;;5043834;28;20431;-79
2022/06/10 13:03:59;;;;;;;9.20;4.20;;;21.80;99.90;;;;;;5031583;28;20421;-79
2022/06/10 13:06:29;;;;;;;8.38;3.90;;;21.60;99.90;;;;;;5022963;28;20485;-78
2022/06/10 13:09:10;;;;;;;7.43;3.10;;;22.30;99.90;;;;;;5037241;28;20429;-78
2022/06/10 13:11:52;;;;;;;6.82;3.40;;;22.90;99.90;;;;;;5037839;28;20467;-78
2022/06/10 13:14:33;;;;;;;6.43;3.00;;;23.50;99.90;;;;;;5055433;28;20425;-77
2022/06/10 13:16:58;;;;;;;8.45;3.22;;;23.10;99.90;;;;;;5018676;28;20434;-79
2022/06/10 13:19:30;;;;;;;7.75;3.20;;;23.10;99.90;;;;;;5040270;28;20425;-79
2022/06/10 13:21:57;;;;;;;7.23;3.33;;;23.40;99.90;;;;;;5038755;28;20411;-78
2022/06/10 13:24:23;;;;;;;6.27;2.80;;;22.90;99.90;;;;;;5030009;28;20429;-78
2022/06/10 13:26:50;;;;;;;7.10;3.27;;;22.80;99.90;;;;;;5013846;28;20415;-76
2022/06/10 13:29:21;;;;;;;7.88;3.38;;;22.60;99.90;;;;;;5053153;28;20393;-75
2022/06/10 13:31:57;;;;;;;7.55;2.83;;;22.50;99.90;;;;;;5020044;28;20457;-75
2022/06/10 13:34:32;;;;;;;8.23;2.70;;;22.80;99.90;;;;;;5044165;28;20454;-77
2022/06/10 13:37:09;;;;;;;6.95;2.80;;;23.20;99.90;;;;;;5047659;28;20434;-78
2022/06/10 13:39:42;;;;;;;5.75;2.55;;;23.40;99.90;;;;;;5049612;28;20961;-77
2022/06/10 13:42:22;;;;;;;7.55;2.83;;;23.10;99.90;;;;;;5034086;28;20458;-77
2022/06/10 13:44:50;;;;;;;7.47;2.88;;;22.90;99.90;;;;;;5048362;28;20431;-77
2022/06/10 13:47:25;;;;;;;8.32;2.55;;;22.70;99.90;;;;;;5041183;28;20423;-77
2022/06/10 13:52:39;;;;;;;5.07;2.45;;;23.60;99.90;;;;;;5044241;28;20775;-78
2022/06/10 13:55:29;;;;;;;5.67;2.20;;;23.90;99.90;;;;;;5036160;28;20974;-78
2022/06/10 13:58:07;;;;;;;8.47;2.53;;;22.50;99.90;;;;;;5049263;28;20413;-79
2022/06/10 14:00:49;;;;;;;5.38;2.10;;;24.00;99.90;;;;;;5048461;28;20769;-78
2022/06/10 14:03:30;;;;;;;7.80;2.73;;;24.20;99.90;;;;;;5049734;28;20497;-78
2022/06/10 14:06:07;;;;;;;8.00;2.10;;;24.40;99.90;;;;;;5032167;28;20500;-78
2022/06/10 14:08:45;;;;;;;7.57;2.33;;;24.30;99.90;;;;;;5045597;28;20529;-78
2022/06/10 14:11:32;;;;;;;5.82;2.40;;;24.70;99.90;;;;;;5049355;28;20428;-79
2022/06/10 14:14:00;;;;;;;6.65;2.50;;;24.30;99.90;;;;;;5042845;28;20814;-78
2022/06/10 14:16:28;;;;;;;5.40;2.30;;;22.10;99.90;;;;;;5044168;28;20421;-79
2022/06/10 14:18:56;;;;;;;7.17;2.20;;;24.80;99.90;;;;;;5039741;28;20830;-78
2022/06/10 14:21:22;;;;;;;6.37;2.23;;;24.00;99.90;;;;;;5003231;28;20574;-78
2022/06/10 14:24:17;;;;;;;5.90;2.00;;;23.50;99.90;;;;;;5036658;28;20565;-78
2022/06/10 14:26:54;;;;;;;5.03;2.13;;;23.60;99.90;;;;;;5019491;28;20902;-78
2022/06/10 14:29:27;;;;;;;7.80;2.27;;;23.40;99.90;;;;;;5048397;28;20418;-78
2022/06/10 14:32:12;;;;;;;6.00;2.20;;;22.90;99.90;;;;;;5039366;28;20423;-78
2022/06/10 14:34:45;;;;;;;6.57;2.40;;;23.20;99.90;;;;;;5043452;28;20437;-77
2022/06/10 14:37:26;;;;;;;7.47;2.60;;;23.10;99.90;;;;;;5030996;28;20431;-78
2022/06/10 14:40:16;;;;;;;6.68;2.58;;;23.20;99.90;;;;;;5040502;28;20470;-78
2022/06/10 14:42:48;;;;;;;6.90;2.42;;;23.20;99.90;;;;;;5034924;28;20405;-78
2022/06/10 14:45:37;;;;;;;6.55;2.33;;;23.00;99.90;;;;;;5044758;28;20492;-78
2022/06/10 14:48:08;;;;;;;5.90;2.33;;;23.20;99.90;;;;;;5043838;28;20427;-78
2022/06/10 14:50:40;;;;;;;7.20;2.25;;;23.50;99.90;;;;;;5024854;28;20397;-78
2022/06/10 14:53:17;;;;;;;7.23;2.40;;;24.20;99.90;;;;;;5048778;28;20421;-78
2022/06/10 14:55:46;;;;;;;6.30;2.30;;;24.50;99.90;;;;;;5017350;28;20524;-78
2022/06/10 14:58:14;;;;;;;6.57;2.67;;;24.00;99.90;;;;;;5039731;28;20419;-79
2022/06/10 15:00:42;;;;;;;7.47;2.50;;;24.50;99.90;;;;;;5040315;28;21013;-78
2022/06/10 15:03:16;;;;;;;5.93;2.45;;;24.50;99.90;;;;;;5049737;28;20425;-79
2022/06/10 15:08:28;;;;;;;6.80;2.50;;;24.80;99.90;;;;;;5034032;28;20431;-78
2022/06/10 15:10:54;;;;;;;6.43;2.50;;;24.60;99.90;;;;;;5028279;28;20398;-79
2022/06/10 15:13:30;;;;;;;7.00;2.67;;;24.90;99.90;;;;;;5019357;28;20437;-79
2022/06/10 15:15:56;;;;;;;6.40;2.60;;;25.20;99.90;;;;;;5036535;28;20430;-78
2022/06/10 15:18:22;;;;;;;7.77;2.87;;;25.20;99.90;;;;;;5005419;28;20854;-78
2022/06/10 15:20:47;;;;;;;7.25;2.40;;;25.20;99.90;;;;;;5029834;28;20480;-78
2022/06/10 15:23:15;;;;;;;7.38;2.53;;;25.20;99.90;;;;;;5023833;28;20426;-78
2022/06/10 15:25:44;;;;;;;7.85;2.85;;;28.10;99.90;;;;;;5025957;28;20479;-77
2022/06/10 15:28:13;;;;;;;6.78;2.78;;;23.70;99.90;;;;;;5026602;28;20434;-78
2022/06/10 15:30:40;;;;;;;7.47;2.47;;;26.40;99.90;;;;;;5040834;28;20414;-79
2022/06/10 15:33:06;;;;;;;5.68;2.30;;;26.30;99.90;;;;;;5031308;28;20545;-79
2022/06/10 15:41:05;;;;;;;6.32;2.20;;;26.50;99.90;;;;;;5035539;28;20429;-78
2022/06/10 15:43:31;;;;;;;5.25;2.00;;;26.10;99.90;;;;;;5027944;28;20423;-78
2022/06/10 15:45:58;;;;;;;6.00;2.30;;;26.50;99.90;;;;;;5040395;28;20429;-79
2022/06/10 15:48:25;;;;;;;5.22;1.90;;;26.60;99.90;;;;;;5008121;28;20418;-79
2022/06/10 15:50:54;;;;;;;4.40;1.80;;;26.40;99.90;;;;;;5016081;28;20425;-79
2022/06/10 15:53:25;;;;;;;5.90;1.80;;;25.70;99.90;;;;;;5025304;28;20432;-79
2022/06/10 15:58:37;;;;;;;4.65;1.60;;;25.50;99.90;;;;;;5040814;28;20786;-79
2022/06/10 16:01:03;;;;;;;4.53;1.60;;;26.20;99.90;;;;;;5028129;28;20423;-79
2022/06/10 16:03:29;;;;;;;3.97;1.55;;;26.70;99.90;;;;;;5020620;28;20431;-76
2022/06/10 16:05:55;;;;;;;3.78;1.50;;;26.30;99.90;;;;;;5039880;28;20784;-75